Ariel, Mississippi
Current Conditions -  °F | °C
As of 2:53 AM on Saturday 25 Oct 2014 (Local Time) from KMCB Reporting Station
Clear Clear  
Wind Chill: 56°   Ceiling: Unl
Heat Index: 56°   Visibility: 10mi
Dew Point: 45°   Wind: 6mph
Humidity: 67%   Direction: 10°N
Pressure: 30.11"   Gusts: NA
Location:  31.1819°N, 90.9008°W
Report Text: KMCB 250753Z AUTO 01005KT 10SM CLR 13/07 A3011 RMK AO2 SLP193 T01330072
Loading
Personal Weather Stations






























Interactive Weather Map New forecast layout! Learn more

10-Day Weather Forecast

Advertisements
Track Severe Weather on mobile